sensor_id;sensor_type;location;lat;lon;timestamp;P1;durP1;ratioP1;P2;durP2;ratioP2
17886;SDS011;9069;52.044;7.472;2024-03-02T00:01:34;4.05;;;2.08;;
17886;SDS011;9069;52.044;7.472;2024-03-02T00:04:03;2.90;;;1.92;;
17886;SDS011;9069;52.044;7.472;2024-03-02T00:06:32;2.63;;;2.15;;
17886;SDS011;9069;52.044;7.472;2024-03-02T00:09:00;2.95;;;2.00;;
17886;SDS011;9069;52.044;7.472;2024-03-02T00:11:29;3.13;;;2.20;;
17886;SDS011;9069;52.044;7.472;2024-03-02T00:13:56;3.90;;;2.08;;
17886;SDS011;9069;52.044;7.472;2024-03-02T00:16:23;3.80;;;2.20;;
17886;SDS011;9069;52.044;7.472;2024-03-02T00:18:50;4.57;;;2.63;;
17886;SDS011;9069;52.044;7.472;2024-03-02T00:21:17;4.57;;;2.10;;
17886;SDS011;9069;52.044;7.472;2024-03-02T00:23:47;2.78;;;2.13;;
17886;SDS011;9069;52.044;7.472;2024-03-02T00:26:18;4.13;;;2.30;;
17886;SDS011;9069;52.044;7.472;2024-03-02T00:28:45;5.88;;;2.05;;
17886;SDS011;9069;52.044;7.472;2024-03-02T00:31:12;2.20;;;1.90;;
17886;SDS011;9069;52.044;7.472;2024-03-02T00:33:41;2.97;;;1.90;;
17886;SDS011;9069;52.044;7.472;2024-03-02T00:36:10;2.53;;;1.80;;
17886;SDS011;9069;52.044;7.472;2024-03-02T00:38:53;2.65;;;1.90;;
17886;SDS011;9069;52.044;7.472;2024-03-02T00:41:24;4.03;;;2.47;;
17886;SDS011;9069;52.044;7.472;2024-03-02T00:46:34;3.97;;;2.35;;
17886;SDS011;9069;52.044;7.472;2024-03-02T00:49:17;3.03;;;1.88;;
17886;SDS011;9069;52.044;7.472;2024-03-02T00:51:47;5.70;;;2.20;;
17886;SDS011;9069;52.044;7.472;2024-03-02T00:54:15;3.85;;;2.42;;
17886;SDS011;9069;52.044;7.472;2024-03-02T00:56:51;2.60;;;2.10;;
17886;SDS011;9069;52.044;7.472;2024-03-02T00:59:18;2.88;;;2.10;;
17886;SDS011;9069;52.044;7.472;2024-03-02T01:01:45;3.63;;;2.30;;
17886;SDS011;9069;52.044;7.472;2024-03-02T01:04:12;3.67;;;2.60;;
17886;SDS011;9069;52.044;7.472;2024-03-02T01:06:40;2.50;;;1.63;;
17886;SDS011;9069;52.044;7.472;2024-03-02T01:09:12;3.65;;;2.38;;
17886;SDS011;9069;52.044;7.472;2024-03-02T01:11:39;4.38;;;2.00;;
17886;SDS011;9069;52.044;7.472;2024-03-02T01:14:06;3.50;;;2.03;;
17886;SDS011;9069;52.044;7.472;2024-03-02T01:16:33;2.58;;;1.75;;
17886;SDS011;9069;52.044;7.472;2024-03-02T01:19:00;3.97;;;2.05;;
17886;SDS011;9069;52.044;7.472;2024-03-02T01:21:27;2.42;;;1.83;;
17886;SDS011;9069;52.044;7.472;2024-03-02T01:23:54;2.97;;;2.00;;
17886;SDS011;9069;52.044;7.472;2024-03-02T01:26:21;5.97;;;2.05;;
17886;SDS011;9069;52.044;7.472;2024-03-02T01:28:48;4.28;;;2.50;;
17886;SDS011;9069;52.044;7.472;2024-03-02T01:31:15;3.58;;;2.05;;
17886;SDS011;9069;52.044;7.472;2024-03-02T01:33:41;3.60;;;2.10;;
17886;SDS011;9069;52.044;7.472;2024-03-02T01:36:09;3.90;;;2.20;;
17886;SDS011;9069;52.044;7.472;2024-03-02T01:38:36;3.15;;;1.83;;
17886;SDS011;9069;52.044;7.472;2024-03-02T01:41:05;4.65;;;1.98;;
17886;SDS011;9069;52.044;7.472;2024-03-02T01:43:33;2.60;;;1.88;;
17886;SDS011;9069;52.044;7.472;2024-03-02T01:46:03;3.90;;;2.00;;
17886;SDS011;9069;52.044;7.472;2024-03-02T01:48:30;2.22;;;1.90;;
17886;SDS011;9069;52.044;7.472;2024-03-02T01:50:57;2.25;;;1.80;;
17886;SDS011;9069;52.044;7.472;2024-03-02T01:53:24;2.50;;;2.00;;
17886;SDS011;9069;52.044;7.472;2024-03-02T01:55:51;4.20;;;2.10;;
17886;SDS011;9069;52.044;7.472;2024-03-02T01:58:18;3.10;;;1.98;;
17886;SDS011;9069;52.044;7.472;2024-03-02T02:00:45;2.63;;;1.88;;
17886;SDS011;9069;52.044;7.472;2024-03-02T02:03:12;3.08;;;2.00;;
17886;SDS011;9069;52.044;7.472;2024-03-02T02:05:39;3.28;;;1.80;;
17886;SDS011;9069;52.044;7.472;2024-03-02T02:08:08;3.35;;;1.77;;
17886;SDS011;9069;52.044;7.472;2024-03-02T02:10:35;3.40;;;1.95;;
17886;SDS011;9069;52.044;7.472;2024-03-02T02:13:02;5.35;;;2.08;;
17886;SDS011;9069;52.044;7.472;2024-03-02T02:15:30;3.45;;;1.92;;
17886;SDS011;9069;52.044;7.472;2024-03-02T02:17:58;2.97;;;2.00;;
17886;SDS011;9069;52.044;7.472;2024-03-02T02:20:26;2.30;;;1.80;;
17886;SDS011;9069;52.044;7.472;2024-03-02T02:22:56;2.97;;;2.08;;
17886;SDS011;9069;52.044;7.472;2024-03-02T02:25:30;3.28;;;1.77;;
17886;SDS011;9069;52.044;7.472;2024-03-02T02:27:57;4.55;;;1.85;;
17886;SDS011;9069;52.044;7.472;2024-03-02T02:30:30;3.47;;;1.90;;
17886;SDS011;9069;52.044;7.472;2024-03-02T02:32:58;2.58;;;2.00;;
17886;SDS011;9069;52.044;7.472;2024-03-02T02:35:26;4.05;;;2.30;;
17886;SDS011;9069;52.044;7.472;2024-03-02T02:37:54;2.97;;;1.63;;
17886;SDS011;9069;52.044;7.472;2024-03-02T02:40:23;3.45;;;1.85;;
17886;SDS011;9069;52.044;7.472;2024-03-02T02:42:50;4.85;;;2.50;;
17886;SDS011;9069;52.044;7.472;2024-03-02T02:45:20;4.07;;;2.25;;
17886;SDS011;9069;52.044;7.472;2024-03-02T02:47:47;2.97;;;2.15;;
17886;SDS011;9069;52.044;7.472;2024-03-02T02:50:14;3.75;;;2.13;;
17886;SDS011;9069;52.044;7.472;2024-03-02T02:52:42;4.07;;;2.13;;
17886;SDS011;9069;52.044;7.472;2024-03-02T02:55:10;3.88;;;2.35;;
17886;SDS011;9069;52.044;7.472;2024-03-02T02:57:41;3.25;;;2.30;;
17886;SDS011;9069;52.044;7.472;2024-03-02T03:02:43;2.42;;;1.63;;
17886;SDS011;9069;52.044;7.472;2024-03-02T03:05:16;5.35;;;1.85;;
17886;SDS011;9069;52.044;7.472;2024-03-02T03:07:43;3.72;;;2.10;;
17886;SDS011;9069;52.044;7.472;2024-03-02T03:10:11;3.10;;;1.85;;
17886;SDS011;9069;52.044;7.472;2024-03-02T03:12:39;2.20;;;1.42;;
17886;SDS011;9069;52.044;7.472;2024-03-02T03:15:08;2.83;;;1.60;;
17886;SDS011;9069;52.044;7.472;2024-03-02T03:17:36;3.30;;;2.13;;
17886;SDS011;9069;52.044;7.472;2024-03-02T03:20:04;4.18;;;2.10;;
17886;SDS011;9069;52.044;7.472;2024-03-02T03:22:37;3.20;;;2.30;;
17886;SDS011;9069;52.044;7.472;2024-03-02T03:25:05;2.95;;;2.00;;
17886;SDS011;9069;52.044;7.472;2024-03-02T03:27:34;3.92;;;2.20;;
17886;SDS011;9069;52.044;7.472;2024-03-02T03:30:02;3.15;;;2.20;;
17886;SDS011;9069;52.044;7.472;2024-03-02T03:32:29;3.92;;;2.08;;
17886;SDS011;9069;52.044;7.472;2024-03-02T03:34:56;11.73;;;2.70;;
17886;SDS011;9069;52.044;7.472;2024-03-02T03:37:23;3.13;;;2.20;;
17886;SDS011;9069;52.044;7.472;2024-03-02T03:39:52;3.75;;;2.50;;
17886;SDS011;9069;52.044;7.472;2024-03-02T03:42:19;3.85;;;2.55;;
17886;SDS011;9069;52.044;7.472;2024-03-02T03:44:45;5.47;;;2.70;;
17886;SDS011;9069;52.044;7.472;2024-03-02T03:47:12;4.03;;;2.60;;
17886;SDS011;9069;52.044;7.472;2024-03-02T03:49:39;3.65;;;2.50;;
17886;SDS011;9069;52.044;7.472;2024-03-02T03:52:06;3.15;;;2.38;;
17886;SDS011;9069;52.044;7.472;2024-03-02T03:54:34;3.50;;;2.30;;
17886;SDS011;9069;52.044;7.472;2024-03-02T03:57:03;3.20;;;2.15;;
17886;SDS011;9069;52.044;7.472;2024-03-02T03:59:31;3.13;;;2.28;;
17886;SDS011;9069;52.044;7.472;2024-03-02T04:01:57;3.58;;;2.13;;
17886;SDS011;9069;52.044;7.472;2024-03-02T04:04:24;4.10;;;2.35;;
17886;SDS011;9069;52.044;7.472;2024-03-02T04:06:51;3.45;;;2.25;;
17886;SDS011;9069;52.044;7.472;2024-03-02T04:09:18;3.83;;;2.40;;
17886;SDS011;9069;52.044;7.472;2024-03-02T04:11:44;2.67;;;2.17;;
17886;SDS011;9069;52.044;7.472;2024-03-02T04:14:11;4.47;;;2.50;;
17886;SDS011;9069;52.044;7.472;2024-03-02T04:16:38;2.83;;;2.08;;
17886;SDS011;9069;52.044;7.472;2024-03-02T04:19:05;3.85;;;2.00;;
17886;SDS011;9069;52.044;7.472;2024-03-02T04:21:32;4.35;;;2.05;;
17886;SDS011;9069;52.044;7.472;2024-03-02T04:23:59;4.25;;;2.30;;
17886;SDS011;9069;52.044;7.472;2024-03-02T04:26:27;3.05;;;1.75;;
17886;SDS011;9069;52.044;7.472;2024-03-02T04:28:54;2.50;;;1.92;;
17886;SDS011;9069;52.044;7.472;2024-03-02T04:31:21;2.45;;;1.95;;
17886;SDS011;9069;52.044;7.472;2024-03-02T04:33:48;3.42;;;2.03;;
17886;SDS011;9069;52.044;7.472;2024-03-02T04:36:15;5.18;;;2.17;;
17886;SDS011;9069;52.044;7.472;2024-03-02T04:38:42;3.88;;;2.10;;
17886;SDS011;9069;52.044;7.472;2024-03-02T04:41:09;3.13;;;2.20;;
17886;SDS011;9069;52.044;7.472;2024-03-02T04:43:35;3.88;;;2.03;;
17886;SDS011;9069;52.044;7.472;2024-03-02T04:46:03;4.15;;;2.03;;
17886;SDS011;9069;52.044;7.472;2024-03-02T04:48:31;2.45;;;1.77;;
17886;SDS011;9069;52.044;7.472;2024-03-02T04:50:58;3.50;;;1.90;;
17886;SDS011;9069;52.044;7.472;2024-03-02T04:53:25;3.53;;;2.22;;
17886;SDS011;9069;52.044;7.472;2024-03-02T04:55:51;2.75;;;1.77;;
17886;SDS011;9069;52.044;7.472;2024-03-02T04:58:36;1.98;;;1.45;;
17886;SDS011;9069;52.044;7.472;2024-03-02T05:01:04;5.53;;;1.45;;
17886;SDS011;9069;52.044;7.472;2024-03-02T05:03:31;2.05;;;1.48;;
17886;SDS011;9069;52.044;7.472;2024-03-02T05:06:06;1.85;;;1.42;;
17886;SDS011;9069;52.044;7.472;2024-03-02T05:08:35;3.83;;;1.95;;
17886;SDS011;9069;52.044;7.472;2024-03-02T05:11:01;2.78;;;1.90;;
17886;SDS011;9069;52.044;7.472;2024-03-02T05:13:47;4.35;;;2.10;;
17886;SDS011;9069;52.044;7.472;2024-03-02T05:16:14;3.20;;;1.63;;
17886;SDS011;9069;52.044;7.472;2024-03-02T05:18:40;5.25;;;1.83;;
17886;SDS011;9069;52.044;7.472;2024-03-02T05:21:07;2.78;;;1.55;;
17886;SDS011;9069;52.044;7.472;2024-03-02T05:23:34;1.70;;;1.42;;
17886;SDS011;9069;52.044;7.472;2024-03-02T05:26:01;3.90;;;1.75;;
17886;SDS011;9069;52.044;7.472;2024-03-02T05:28:32;2.65;;;1.35;;
17886;SDS011;9069;52.044;7.472;2024-03-02T05:30:58;2.67;;;1.30;;
17886;SDS011;9069;52.044;7.472;2024-03-02T05:33:29;5.57;;;1.67;;
17886;SDS011;9069;52.044;7.472;2024-03-02T05:35:57;3.72;;;1.73;;
17886;SDS011;9069;52.044;7.472;2024-03-02T05:38:24;4.63;;;1.52;;
17886;SDS011;9069;52.044;7.472;2024-03-02T05:40:51;2.10;;;1.45;;
17886;SDS011;9069;52.044;7.472;2024-03-02T05:43:18;1.92;;;1.60;;
17886;SDS011;9069;52.044;7.472;2024-03-02T05:45:46;4.60;;;1.63;;
17886;SDS011;9069;52.044;7.472;2024-03-02T05:48:12;2.38;;;1.50;;
17886;SDS011;9069;52.044;7.472;2024-03-02T05:50:39;2.40;;;1.33;;
17886;SDS011;9069;52.044;7.472;2024-03-02T05:53:06;1.48;;;1.38;;
17886;SDS011;9069;52.044;7.472;2024-03-02T05:55:34;3.20;;;1.48;;
17886;SDS011;9069;52.044;7.472;2024-03-02T05:58:03;3.60;;;1.50;;
17886;SDS011;9069;52.044;7.472;2024-03-02T06:00:33;2.55;;;1.40;;
17886;SDS011;9069;52.044;7.472;2024-03-02T06:03:00;2.03;;;1.40;;
17886;SDS011;9069;52.044;7.472;2024-03-02T06:05:27;2.53;;;1.50;;
17886;SDS011;9069;52.044;7.472;2024-03-02T06:07:55;2.05;;;1.40;;
17886;SDS011;9069;52.044;7.472;2024-03-02T06:10:21;2.30;;;1.38;;
17886;SDS011;9069;52.044;7.472;2024-03-02T06:12:48;4.60;;;1.65;;
17886;SDS011;9069;52.044;7.472;2024-03-02T06:15:15;3.88;;;1.35;;
17886;SDS011;9069;52.044;7.472;2024-03-02T06:17:43;2.45;;;1.50;;
17886;SDS011;9069;52.044;7.472;2024-03-02T06:20:10;2.65;;;1.20;;
17886;SDS011;9069;52.044;7.472;2024-03-02T06:22:38;4.38;;;1.30;;
17886;SDS011;9069;52.044;7.472;2024-03-02T06:25:05;1.80;;;1.40;;
17886;SDS011;9069;52.044;7.472;2024-03-02T06:27:32;2.00;;;1.40;;
17886;SDS011;9069;52.044;7.472;2024-03-02T06:29:59;2.08;;;1.33;;
17886;SDS011;9069;52.044;7.472;2024-03-02T06:32:26;1.83;;;1.40;;
17886;SDS011;9069;52.044;7.472;2024-03-02T06:34:53;2.67;;;1.30;;
17886;SDS011;9069;52.044;7.472;2024-03-02T06:37:20;1.75;;;1.33;;
17886;SDS011;9069;52.044;7.472;2024-03-02T06:39:47;2.30;;;1.55;;
17886;SDS011;9069;52.044;7.472;2024-03-02T06:42:14;3.17;;;1.77;;
17886;SDS011;9069;52.044;7.472;2024-03-02T06:44:40;3.78;;;1.50;;
17886;SDS011;9069;52.044;7.472;2024-03-02T06:47:07;2.90;;;1.40;;
17886;SDS011;9069;52.044;7.472;2024-03-02T06:49:34;3.65;;;1.67;;
17886;SDS011;9069;52.044;7.472;2024-03-02T06:52:01;2.10;;;1.45;;
17886;SDS011;9069;52.044;7.472;2024-03-02T06:54:28;2.30;;;1.40;;
17886;SDS011;9069;52.044;7.472;2024-03-02T06:56:55;2.53;;;1.60;;
17886;SDS011;9069;52.044;7.472;2024-03-02T06:59:22;3.15;;;1.58;;
17886;SDS011;9069;52.044;7.472;2024-03-02T07:01:48;1.42;;;1.33;;
17886;SDS011;9069;52.044;7.472;2024-03-02T07:04:15;3.10;;;1.58;;
17886;SDS011;9069;52.044;7.472;2024-03-02T07:06:42;2.67;;;1.42;;
17886;SDS011;9069;52.044;7.472;2024-03-02T07:09:09;6.47;;;1.65;;
17886;SDS011;9069;52.044;7.472;2024-03-02T07:11:37;3.42;;;1.60;;
17886;SDS011;9069;52.044;7.472;2024-03-02T07:14:04;3.95;;;1.95;;
17886;SDS011;9069;52.044;7.472;2024-03-02T07:16:30;3.03;;;1.55;;
17886;SDS011;9069;52.044;7.472;2024-03-02T07:18:59;2.08;;;1.60;;
17886;SDS011;9069;52.044;7.472;2024-03-02T07:21:28;2.28;;;1.65;;
17886;SDS011;9069;52.044;7.472;2024-03-02T07:23:55;2.70;;;1.70;;
17886;SDS011;9069;52.044;7.472;2024-03-02T07:26:22;2.80;;;1.55;;
17886;SDS011;9069;52.044;7.472;2024-03-02T07:28:52;3.05;;;1.80;;
17886;SDS011;9069;52.044;7.472;2024-03-02T07:31:19;4.60;;;1.73;;
17886;SDS011;9069;52.044;7.472;2024-03-02T07:33:46;3.80;;;2.17;;
17886;SDS011;9069;52.044;7.472;2024-03-02T07:36:13;2.85;;;2.22;;
17886;SDS011;9069;52.044;7.472;2024-03-02T07:38:40;3.08;;;2.70;;
17886;SDS011;9069;52.044;7.472;2024-03-02T07:41:07;4.38;;;2.38;;
17886;SDS011;9069;52.044;7.472;2024-03-02T07:43:35;4.90;;;2.55;;
17886;SDS011;9069;52.044;7.472;2024-03-02T07:46:04;5.35;;;1.65;;
17886;SDS011;9069;52.044;7.472;2024-03-02T07:48:34;3.47;;;1.90;;
17886;SDS011;9069;52.044;7.472;2024-03-02T07:51:05;4.63;;;2.38;;
17886;SDS011;9069;52.044;7.472;2024-03-02T07:53:32;3.42;;;2.05;;
17886;SDS011;9069;52.044;7.472;2024-03-02T07:55:59;3.58;;;1.95;;
17886;SDS011;9069;52.044;7.472;2024-03-02T07:58:29;2.03;;;1.73;;
17886;SDS011;9069;52.044;7.472;2024-03-02T08:00:57;3.33;;;2.03;;
17886;SDS011;9069;52.044;7.472;2024-03-02T08:03:24;4.60;;;2.25;;
17886;SDS011;9069;52.044;7.472;2024-03-02T08:05:51;4.65;;;2.00;;
17886;SDS011;9069;52.044;7.472;2024-03-02T08:08:18;2.80;;;1.67;;
17886;SDS011;9069;52.044;7.472;2024-03-02T08:10:45;6.38;;;1.60;;
17886;SDS011;9069;52.044;7.472;2024-03-02T08:13:12;5.05;;;1.67;;
17886;SDS011;9069;52.044;7.472;2024-03-02T08:15:40;2.17;;;1.40;;
17886;SDS011;9069;52.044;7.472;2024-03-02T08:18:06;3.10;;;1.65;;
17886;SDS011;9069;52.044;7.472;2024-03-02T08:20:33;2.35;;;1.58;;
17886;SDS011;9069;52.044;7.472;2024-03-02T08:23:00;3.47;;;1.75;;
17886;SDS011;9069;52.044;7.472;2024-03-02T08:25:27;3.03;;;1.52;;
17886;SDS011;9069;52.044;7.472;2024-03-02T08:27:55;2.80;;;1.45;;
17886;SDS011;9069;52.044;7.472;2024-03-02T08:30:21;1.88;;;1.63;;
17886;SDS011;9069;52.044;7.472;2024-03-02T08:32:48;3.67;;;1.67;;
17886;SDS011;9069;52.044;7.472;2024-03-02T08:35:15;2.58;;;1.60;;
17886;SDS011;9069;52.044;7.472;2024-03-02T08:37:43;2.45;;;1.73;;
17886;SDS011;9069;52.044;7.472;2024-03-02T08:40:10;4.50;;;1.90;;
17886;SDS011;9069;52.044;7.472;2024-03-02T08:42:41;3.92;;;1.50;;
17886;SDS011;9069;52.044;7.472;2024-03-02T08:45:08;3.65;;;1.83;;
17886;SDS011;9069;52.044;7.472;2024-03-02T08:47:35;1.85;;;1.65;;
17886;SDS011;9069;52.044;7.472;2024-03-02T08:50:02;2.40;;;1.30;;
17886;SDS011;9069;52.044;7.472;2024-03-02T08:52:32;2.28;;;1.55;;
17886;SDS011;9069;52.044;7.472;2024-03-02T08:54:58;2.75;;;1.70;;
17886;SDS011;9069;52.044;7.472;2024-03-02T08:57:26;3.95;;;1.70;;
17886;SDS011;9069;52.044;7.472;2024-03-02T08:59:53;2.42;;;1.50;;
17886;SDS011;9069;52.044;7.472;2024-03-02T09:02:20;3.15;;;1.50;;
17886;SDS011;9069;52.044;7.472;2024-03-02T09:04:47;4.72;;;1.60;;
17886;SDS011;9069;52.044;7.472;2024-03-02T09:07:15;1.60;;;1.42;;
17886;SDS011;9069;52.044;7.472;2024-03-02T09:09:42;2.65;;;1.67;;
17886;SDS011;9069;52.044;7.472;2024-03-02T09:12:09;3.28;;;1.63;;
17886;SDS011;9069;52.044;7.472;2024-03-02T09:14:37;4.13;;;1.65;;
17886;SDS011;9069;52.044;7.472;2024-03-02T09:17:04;3.30;;;1.60;;
17886;SDS011;9069;52.044;7.472;2024-03-02T09:19:31;2.78;;;1.60;;
17886;SDS011;9069;52.044;7.472;2024-03-02T09:21:57;4.63;;;1.50;;
17886;SDS011;9069;52.044;7.472;2024-03-02T09:24:26;2.63;;;1.48;;
17886;SDS011;9069;52.044;7.472;2024-03-02T09:26:53;4.07;;;1.70;;
17886;SDS011;9069;52.044;7.472;2024-03-02T09:29:20;2.60;;;1.50;;
17886;SDS011;9069;52.044;7.472;2024-03-02T09:31:47;2.08;;;1.55;;
17886;SDS011;9069;52.044;7.472;2024-03-02T09:34:15;3.25;;;1.50;;
17886;SDS011;9069;52.044;7.472;2024-03-02T09:36:43;2.70;;;1.60;;
17886;SDS011;9069;52.044;7.472;2024-03-02T09:39:10;4.55;;;1.40;;
17886;SDS011;9069;52.044;7.472;2024-03-02T09:41:37;3.40;;;1.38;;
17886;SDS011;9069;52.044;7.472;2024-03-02T09:44:05;1.50;;;1.33;;
17886;SDS011;9069;52.044;7.472;2024-03-02T09:46:32;2.40;;;1.50;;
17886;SDS011;9069;52.044;7.472;2024-03-02T09:48:59;3.50;;;1.73;;
17886;SDS011;9069;52.044;7.472;2024-03-02T09:51:27;1.95;;;1.55;;
17886;SDS011;9069;52.044;7.472;2024-03-02T09:53:55;2.50;;;1.88;;
17886;SDS011;9069;52.044;7.472;2024-03-02T09:56:38;2.95;;;1.73;;
17886;SDS011;9069;52.044;7.472;2024-03-02T09:59:05;1.92;;;1.40;;
17886;SDS011;9069;52.044;7.472;2024-03-02T10:01:32;2.85;;;2.17;;
17886;SDS011;9069;52.044;7.472;2024-03-02T10:03:59;2.10;;;1.65;;
17886;SDS011;9069;52.044;7.472;2024-03-02T10:06:27;2.00;;;1.60;;
17886;SDS011;9069;52.044;7.472;2024-03-02T10:08:55;2.22;;;1.50;;
17886;SDS011;9069;52.044;7.472;2024-03-02T10:11:26;2.13;;;1.42;;
17886;SDS011;9069;52.044;7.472;2024-03-02T10:14:10;2.25;;;1.50;;
17886;SDS011;9069;52.044;7.472;2024-03-02T10:16:38;2.13;;;1.40;;
17886;SDS011;9069;52.044;7.472;2024-03-02T10:19:15;7.75;;;1.88;;
17886;SDS011;9069;52.044;7.472;2024-03-02T10:21:46;5.03;;;1.83;;
17886;SDS011;9069;52.044;7.472;2024-03-02T10:24:17;2.97;;;1.48;;
17886;SDS011;9069;52.044;7.472;2024-03-02T10:26:45;2.30;;;1.40;;
17886;SDS011;9069;52.044;7.472;2024-03-02T10:29:12;1.27;;;1.17;;
17886;SDS011;9069;52.044;7.472;2024-03-02T10:31:39;2.47;;;1.60;;
17886;SDS011;9069;52.044;7.472;2024-03-02T10:34:07;1.77;;;1.35;;
17886;SDS011;9069;52.044;7.472;2024-03-02T10:36:36;1.92;;;1.25;;
17886;SDS011;9069;52.044;7.472;2024-03-02T10:39:04;1.73;;;1.30;;
17886;SDS011;9069;52.044;7.472;2024-03-02T10:41:32;2.20;;;1.42;;
17886;SDS011;9069;52.044;7.472;2024-03-02T10:44:03;2.00;;;1.27;;
17886;SDS011;9069;52.044;7.472;2024-03-02T10:46:34;2.67;;;1.45;;
17886;SDS011;9069;52.044;7.472;2024-03-02T10:49:03;2.22;;;1.45;;
17886;SDS011;9069;52.044;7.472;2024-03-02T10:51:34;2.38;;;1.58;;
17886;SDS011;9069;52.044;7.472;2024-03-02T10:54:03;2.30;;;1.08;;
17886;SDS011;9069;52.044;7.472;2024-03-02T10:56:41;2.25;;;1.15;;
17886;SDS011;9069;52.044;7.472;2024-03-02T10:59:22;2.90;;;1.20;;
17886;SDS011;9069;52.044;7.472;2024-03-02T11:01:57;2.22;;;1.33;;
17886;SDS011;9069;52.044;7.472;2024-03-02T11:04:30;2.58;;;1.27;;
17886;SDS011;9069;52.044;7.472;2024-03-02T11:09:28;1.98;;;1.13;;
17886;SDS011;9069;52.044;7.472;2024-03-02T11:14:40;2.53;;;0.93;;
17886;SDS011;9069;52.044;7.472;2024-03-02T11:17:11;1.33;;;1.08;;
17886;SDS011;9069;52.044;7.472;2024-03-02T11:19:44;1.90;;;1.10;;
17886;SDS011;9069;52.044;7.472;2024-03-02T11:22:12;1.63;;;1.02;;
17886;SDS011;9069;52.044;7.472;2024-03-02T11:24:47;2.08;;;0.90;;
17886;SDS011;9069;52.044;7.472;2024-03-02T11:27:20;2.00;;;1.00;;
17886;SDS011;9069;52.044;7.472;2024-03-02T11:33:10;4.15;;;1.10;;
17886;SDS011;9069;52.044;7.472;2024-03-02T11:35:42;1.65;;;1.15;;
17886;SDS011;9069;52.044;7.472;2024-03-02T11:38:14;1.75;;;1.15;;
17886;SDS011;9069;52.044;7.472;2024-03-02T11:40:41;2.05;;;1.10;;
17886;SDS011;9069;52.044;7.472;2024-03-02T11:43:08;3.10;;;1.20;;
17886;SDS011;9069;52.044;7.472;2024-03-02T11:45:37;1.75;;;1.17;;
17886;SDS011;9069;52.044;7.472;2024-03-02T11:48:11;1.63;;;0.90;;
17886;SDS011;9069;52.044;7.472;2024-03-02T11:50:41;1.38;;;0.85;;
17886;SDS011;9069;52.044;7.472;2024-03-02T11:53:12;1.10;;;0.70;;
17886;SDS011;9069;52.044;7.472;2024-03-02T11:55:40;2.10;;;0.88;;
17886;SDS011;9069;52.044;7.472;2024-03-02T11:58:07;2.13;;;0.77;;
17886;SDS011;9069;52.044;7.472;2024-03-02T12:00:34;0.73;;;0.70;;
17886;SDS011;9069;52.044;7.472;2024-03-02T12:03:03;2.63;;;0.95;;
17886;SDS011;9069;52.044;7.472;2024-03-02T12:05:30;3.17;;;1.25;;
17886;SDS011;9069;52.044;7.472;2024-03-02T12:07:58;6.10;;;3.17;;
17886;SDS011;9069;52.044;7.472;2024-03-02T12:10:27;4.20;;;2.10;;
17886;SDS011;9069;52.044;7.472;2024-03-02T12:13:01;2.22;;;1.35;;
17886;SDS011;9069;52.044;7.472;2024-03-02T12:15:30;4.22;;;0.80;;
17886;SDS011;9069;52.044;7.472;2024-03-02T12:17:59;1.77;;;1.08;;
17886;SDS011;9069;52.044;7.472;2024-03-02T12:20:29;1.23;;;0.77;;
17886;SDS011;9069;52.044;7.472;2024-03-02T12:23:00;1.10;;;0.90;;
17886;SDS011;9069;52.044;7.472;2024-03-02T12:25:31;1.30;;;0.90;;
17886;SDS011;9069;52.044;7.472;2024-03-02T12:28:00;1.45;;;0.90;;
17886;SDS011;9069;52.044;7.472;2024-03-02T12:30:32;1.92;;;0.88;;
17886;SDS011;9069;52.044;7.472;2024-03-02T12:33:03;2.42;;;0.80;;
17886;SDS011;9069;52.044;7.472;2024-03-02T12:35:30;0.93;;;0.70;;
17886;SDS011;9069;52.044;7.472;2024-03-02T12:37:58;1.48;;;0.70;;
17886;SDS011;9069;52.044;7.472;2024-03-02T12:40:24;1.70;;;1.00;;
17886;SDS011;9069;52.044;7.472;2024-03-02T12:42:51;2.38;;;0.90;;
17886;SDS011;9069;52.044;7.472;2024-03-02T12:45:18;1.15;;;0.90;;
17886;SDS011;9069;52.044;7.472;2024-03-02T12:47:50;3.75;;;1.10;;
17886;SDS011;9069;52.044;7.472;2024-03-02T12:50:18;1.40;;;0.85;;
17886;SDS011;9069;52.044;7.472;2024-03-02T12:52:52;0.75;;;0.60;;
17886;SDS011;9069;52.044;7.472;2024-03-02T12:55:20;1.30;;;0.80;;
17886;SDS011;9069;52.044;7.472;2024-03-02T12:57:51;1.67;;;0.80;;
17886;SDS011;9069;52.044;7.472;2024-03-02T13:00:19;0.60;;;0.60;;
17886;SDS011;9069;52.044;7.472;2024-03-02T13:02:48;1.23;;;0.65;;
17886;SDS011;9069;52.044;7.472;2024-03-02T13:05:16;1.52;;;0.73;;
17886;SDS011;9069;52.044;7.472;2024-03-02T13:07:43;1.33;;;0.70;;
17886;SDS011;9069;52.044;7.472;2024-03-02T13:10:13;0.95;;;0.70;;
17886;SDS011;9069;52.044;7.472;2024-03-02T13:12:41;3.42;;;1.13;;
17886;SDS011;9069;52.044;7.472;2024-03-02T13:15:08;0.60;;;0.50;;
17886;SDS011;9069;52.044;7.472;2024-03-02T13:17:38;0.82;;;0.60;;
17886;SDS011;9069;52.044;7.472;2024-03-02T13:20:05;2.08;;;0.63;;
17886;SDS011;9069;52.044;7.472;2024-03-02T13:22:37;0.90;;;0.60;;
17886;SDS011;9069;52.044;7.472;2024-03-02T13:25:04;0.70;;;0.65;;
17886;SDS011;9069;52.044;7.472;2024-03-02T13:27:32;1.08;;;0.50;;
17886;SDS011;9069;52.044;7.472;2024-03-02T13:29:59;1.10;;;0.55;;
17886;SDS011;9069;52.044;7.472;2024-03-02T13:32:26;0.70;;;0.50;;
17886;SDS011;9069;52.044;7.472;2024-03-02T13:34:53;2.35;;;0.63;;
17886;SDS011;9069;52.044;7.472;2024-03-02T13:37:20;0.90;;;0.40;;
17886;SDS011;9069;52.044;7.472;2024-03-02T13:39:48;1.15;;;0.60;;
17886;SDS011;9069;52.044;7.472;2024-03-02T13:42:15;2.55;;;0.70;;
17886;SDS011;9069;52.044;7.472;2024-03-02T13:44:45;1.48;;;0.60;;
17886;SDS011;9069;52.044;7.472;2024-03-02T13:47:14;1.30;;;0.68;;
17886;SDS011;9069;52.044;7.472;2024-03-02T13:49:41;0.50;;;0.50;;
17886;SDS011;9069;52.044;7.472;2024-03-02T13:52:13;1.70;;;0.57;;
17886;SDS011;9069;52.044;7.472;2024-03-02T13:54:40;0.60;;;0.55;;
17886;SDS011;9069;52.044;7.472;2024-03-02T13:57:08;1.38;;;0.68;;
17886;SDS011;9069;52.044;7.472;2024-03-02T13:59:36;0.65;;;0.57;;
17886;SDS011;9069;52.044;7.472;2024-03-02T14:02:04;0.77;;;0.70;;
17886;SDS011;9069;52.044;7.472;2024-03-02T14:04:36;5.25;;;0.50;;
17886;SDS011;9069;52.044;7.472;2024-03-02T14:07:04;1.55;;;0.63;;
17886;SDS011;9069;52.044;7.472;2024-03-02T14:09:35;0.93;;;0.80;;
17886;SDS011;9069;52.044;7.472;2024-03-02T14:12:02;0.98;;;0.70;;
17886;SDS011;9069;52.044;7.472;2024-03-02T14:14:30;0.93;;;0.77;;
17886;SDS011;9069;52.044;7.472;2024-03-02T14:16:57;2.55;;;0.70;;
17886;SDS011;9069;52.044;7.472;2024-03-02T14:19:29;3.10;;;0.65;;
17886;SDS011;9069;52.044;7.472;2024-03-02T14:21:56;0.95;;;0.68;;
17886;SDS011;9069;52.044;7.472;2024-03-02T14:24:23;0.80;;;0.60;;
17886;SDS011;9069;52.044;7.472;2024-03-02T14:26:52;0.82;;;0.70;;
17886;SDS011;9069;52.044;7.472;2024-03-02T14:29:28;0.63;;;0.63;;
17886;SDS011;9069;52.044;7.472;2024-03-02T14:31:55;3.20;;;0.57;;
17886;SDS011;9069;52.044;7.472;2024-03-02T14:34:22;1.42;;;0.73;;
17886;SDS011;9069;52.044;7.472;2024-03-02T14:36:49;0.60;;;0.60;;
17886;SDS011;9069;52.044;7.472;2024-03-02T14:39:16;1.35;;;0.60;;
17886;SDS011;9069;52.044;7.472;2024-03-02T14:41:44;1.48;;;0.70;;
17886;SDS011;9069;52.044;7.472;2024-03-02T14:44:11;1.02;;;0.70;;
17886;SDS011;9069;52.044;7.472;2024-03-02T14:46:38;0.70;;;0.60;;
17886;SDS011;9069;52.044;7.472;2024-03-02T14:49:07;1.50;;;0.70;;
17886;SDS011;9069;52.044;7.472;2024-03-02T14:51:34;0.50;;;0.50;;
17886;SDS011;9069;52.044;7.472;2024-03-02T14:54:01;0.73;;;0.50;;
17886;SDS011;9069;52.044;7.472;2024-03-02T14:56:29;1.55;;;0.43;;
17886;SDS011;9069;52.044;7.472;2024-03-02T14:58:56;0.82;;;0.63;;
17886;SDS011;9069;52.044;7.472;2024-03-02T15:01:23;0.65;;;0.60;;
17886;SDS011;9069;52.044;7.472;2024-03-02T15:03:51;0.70;;;0.70;;
17886;SDS011;9069;52.044;7.472;2024-03-02T15:06:18;4.90;;;0.80;;
17886;SDS011;9069;52.044;7.472;2024-03-02T15:08:45;0.80;;;0.73;;
17886;SDS011;9069;52.044;7.472;2024-03-02T15:11:15;0.60;;;0.50;;
17886;SDS011;9069;52.044;7.472;2024-03-02T15:13:42;2.30;;;0.90;;
17886;SDS011;9069;52.044;7.472;2024-03-02T15:16:09;1.08;;;0.70;;
17886;SDS011;9069;52.044;7.472;2024-03-02T15:18:36;1.25;;;0.70;;
17886;SDS011;9069;52.044;7.472;2024-03-02T15:21:03;0.68;;;0.60;;